createdAt,value
2018-05-24T04:09:57.957Z,17.36
2018-05-24T04:10:23.455Z,17.45
2018-05-24T04:10:48.970Z,17.42
2018-05-24T04:11:14.469Z,17.33
2018-05-24T04:11:39.979Z,17.36
2018-05-24T04:12:05.495Z,17.38
2018-05-24T04:12:30.946Z,17.31
2018-05-24T04:12:56.446Z,17.31
2018-05-24T04:13:21.921Z,17.38
2018-05-24T04:13:47.427Z,17.38
2018-05-24T04:14:12.940Z,17.42
2018-05-24T04:14:38.483Z,17.42
2018-05-24T04:15:03.997Z,17.36
2018-05-24T04:15:29.484Z,17.44
2018-05-24T04:15:54.962Z,17.45
2018-05-24T04:16:20.504Z,17.44
2018-05-24T04:16:46.065Z,17.41
2018-05-24T04:17:11.569Z,17.44
2018-05-24T04:17:37.057Z,17.38
2018-05-24T04:18:02.551Z,17.41
2018-05-24T04:18:28.039Z,17.41
2018-05-24T04:18:53.521Z,17.45
2018-05-24T04:19:19.019Z,17.46
2018-05-24T04:19:44.483Z,17.46
2018-05-24T04:20:09.983Z,17.52
2018-05-24T04:20:35.523Z,17.48
2018-05-24T04:21:01.015Z,17.46
2018-05-24T04:21:26.527Z,17.48
2018-05-24T04:21:52.039Z,17.49
2018-05-24T04:22:17.504Z,17.49
2018-05-24T04:22:43.007Z,17.45
2018-05-24T04:23:08.538Z,17.49
2018-05-24T04:23:34.027Z,17.51
2018-05-24T04:23:59.517Z,17.48
2018-05-24T04:24:25.005Z,17.48
2018-05-24T04:24:50.497Z,17.44
2018-05-24T04:25:15.990Z,17.48
2018-05-24T04:25:41.440Z,17.44
2018-05-24T04:26:06.951Z,17.49
2018-05-24T04:26:32.477Z,17.56
2018-05-24T04:26:57.990Z,17.46
2018-05-24T04:27:23.506Z,17.51
2018-05-24T04:27:48.935Z,17.52
2018-05-24T04:28:14.415Z,17.56
2018-05-24T04:28:39.903Z,17.67
2018-05-24T04:29:05.632Z,17.56
2018-05-24T04:29:31.140Z,17.46
2018-05-24T04:29:56.662Z,17.59
2018-05-24T04:30:22.142Z,17.64
2018-05-24T04:30:47.651Z,17.51
2018-05-24T04:31:13.147Z,17.57
2018-05-24T04:31:38.600Z,17.59
2018-05-24T04:32:04.061Z,17.56
2018-05-24T04:32:29.556Z,17.67
2018-05-24T04:32:55.090Z,17.59
2018-05-24T04:33:20.567Z,17.6
2018-05-24T04:33:46.079Z,17.56
2018-05-24T04:34:11.630Z,17.57
2018-05-24T04:34:37.124Z,17.6
2018-05-24T04:35:02.603Z,17.57
2018-05-24T04:35:28.440Z,17.59
2018-05-24T04:35:53.927Z,17.54
2018-05-24T04:36:19.421Z,17.59
2018-05-24T04:36:44.906Z,17.54
2018-05-24T04:37:10.426Z,17.49
2018-05-24T04:37:35.928Z,17.52
2018-05-24T04:38:01.426Z,17.54
2018-05-24T04:38:26.917Z,17.6
2018-05-24T04:38:52.430Z,17.49
2018-05-24T04:39:17.937Z,17.49
2018-05-24T04:39:43.452Z,17.59
2018-05-24T04:40:08.933Z,17.57
2018-05-24T04:40:34.420Z,17.49
2018-05-24T04:40:59.911Z,17.59
2018-05-24T04:41:25.396Z,17.54
2018-05-24T04:41:50.928Z,17.6
2018-05-24T04:42:16.408Z,17.54
2018-05-24T04:42:41.878Z,17.56
2018-05-24T04:43:07.397Z,17.51
2018-05-24T04:43:32.915Z,17.63
2018-05-24T04:43:58.439Z,17.63
2018-05-24T04:44:23.904Z,17.63
2018-05-24T04:44:49.407Z,17.6
2018-05-24T04:45:14.900Z,17.63
2018-05-24T04:45:40.417Z,17.7
2018-05-24T04:46:05.898Z,17.67
2018-05-24T04:46:31.381Z,17.76
2018-05-24T04:46:56.882Z,17.68
2018-05-24T04:47:22.379Z,17.68
2018-05-24T04:47:47.859Z,17.71
2018-05-24T04:48:13.332Z,17.72
2018-05-24T04:48:38.867Z,17.67
2018-05-24T04:49:04.351Z,17.68
2018-05-24T04:49:29.849Z,17.67
2018-05-24T04:49:55.328Z,17.68
2018-05-24T04:50:20.874Z,17.7
2018-05-24T04:50:46.410Z,17.67
2018-05-24T04:51:11.867Z,17.68
2018-05-24T04:51:37.356Z,17.64
2018-05-24T04:52:02.854Z,17.71
2018-05-24T04:52:28.350Z,17.68
2018-05-24T04:52:53.888Z,17.67
2018-05-24T04:53:19.388Z,17.71
2018-05-24T04:53:44.879Z,17.71
2018-05-24T04:54:10.619Z,17.68
2018-05-24T04:54:36.171Z,17.65
2018-05-24T04:55:01.879Z,17.67
2018-05-24T04:55:27.680Z,17.68
2018-05-24T04:55:53.268Z,17.68
2018-05-24T04:56:19.253Z,17.67
2018-05-24T04:56:44.760Z,17.7
2018-05-24T04:57:10.355Z,17.7
2018-05-24T04:57:36.061Z,17.68
2018-05-24T04:58:01.776Z,17.71
2018-05-24T04:58:27.416Z,17.7
2018-05-24T04:58:53.163Z,17.7
2018-05-24T04:59:18.862Z,17.71
2018-05-24T04:59:44.390Z,17.71
2018-05-24T05:00:10.041Z,17.7
2018-05-24T05:00:35.619Z,17.7
2018-05-24T05:01:01.311Z,17.7
2018-05-24T05:01:27.069Z,17.74
2018-05-24T05:01:52.892Z,17.7
2018-05-24T05:02:18.571Z,17.68
2018-05-24T05:02:44.470Z,17.68
2018-05-24T05:03:10.277Z,17.72
2018-05-24T05:03:35.880Z,17.71
2018-05-24T05:04:01.519Z,17.78
2018-05-24T05:04:27.221Z,17.78
2018-05-24T05:04:52.720Z,17.72
2018-05-24T05:05:18.440Z,17.74
2018-05-24T05:05:44.086Z,17.68
2018-05-24T05:06:09.802Z,17.79
2018-05-24T05:06:35.482Z,17.72
2018-05-24T05:07:01.009Z,17.72
2018-05-24T05:07:26.499Z,17.72
2018-05-24T05:07:51.991Z,17.8
2018-05-24T05:08:17.490Z,17.79
2018-05-24T05:08:43.055Z,17.7
2018-05-24T05:09:08.574Z,17.74
2018-05-24T05:09:34.115Z,17.74
2018-05-24T05:09:59.632Z,17.74
2018-05-24T05:10:25.139Z,17.7
2018-05-24T05:10:50.651Z,17.82
2018-05-24T05:11:16.140Z,17.68
2018-05-24T05:11:41.649Z,17.68
2018-05-24T05:12:07.135Z,17.76
2018-05-24T05:12:32.648Z,17.78
2018-05-24T05:12:58.134Z,17.74
2018-05-24T05:13:23.671Z,17.76
2018-05-24T05:13:49.132Z,17.76
2018-05-24T05:14:14.650Z,17.74
2018-05-24T05:14:40.314Z,17.7
2018-05-24T05:15:05.661Z,17.74
2018-05-24T05:15:31.167Z,17.76
2018-05-24T05:15:56.673Z,17.71
2018-05-24T05:16:22.155Z,17.7
2018-05-24T05:16:47.643Z,17.76
2018-05-24T05:17:13.145Z,17.76
2018-05-24T05:17:38.653Z,17.7
2018-05-24T05:18:04.249Z,17.72
2018-05-24T05:18:29.759Z,17.7
2018-05-24T05:18:55.256Z,17.7
2018-05-24T05:19:20.766Z,17.76
2018-05-24T05:19:46.252Z,17.74
2018-05-24T05:20:11.810Z,17.79
2018-05-24T05:20:37.308Z,17.74
2018-05-24T05:21:02.795Z,17.74
2018-05-24T05:21:28.299Z,17.78
2018-05-24T05:21:53.819Z,17.72
2018-05-24T05:22:19.417Z,17.79
2018-05-24T05:22:44.906Z,17.71
2018-05-24T05:23:10.513Z,17.9
2018-05-24T05:23:35.939Z,17.71
2018-05-24T05:24:01.461Z,17.85
2018-05-24T05:24:26.954Z,17.71
2018-05-24T05:24:52.465Z,17.82
2018-05-24T05:25:18.127Z,17.78
2018-05-24T05:25:43.432Z,17.8
2018-05-24T05:26:08.963Z,17.78
2018-05-24T05:26:34.449Z,17.8
2018-05-24T05:26:59.964Z,17.86
2018-05-24T05:27:25.464Z,17.87
2018-05-24T05:27:50.964Z,17.86
2018-05-24T05:28:16.469Z,17.8
2018-05-24T05:28:41.986Z,17.87
2018-05-24T05:29:07.484Z,17.87
2018-05-24T05:29:33.015Z,17.83
2018-05-24T05:29:58.535Z,17.83
2018-05-24T05:30:24.081Z,17.86
2018-05-24T05:30:49.591Z,17.83
2018-05-24T05:31:15.081Z,17.89
2018-05-24T05:31:40.583Z,17.87
2018-05-24T05:32:06.172Z,17.87
2018-05-24T05:32:31.727Z,17.87
2018-05-24T05:32:57.225Z,17.9
2018-05-24T05:33:22.725Z,17.85
2018-05-24T05:33:48.229Z,17.89
2018-05-24T05:34:13.757Z,17.87
2018-05-24T05:34:39.420Z,17.92
2018-05-24T05:35:43.302Z,17.92
2018-05-24T05:36:08.778Z,17.92
2018-05-24T05:36:34.281Z,17.9
2018-05-24T05:36:59.798Z,17.97
2018-05-24T05:37:25.299Z,17.94
2018-05-24T05:37:50.774Z,17.94
2018-05-24T05:38:16.378Z,18.04
2018-05-24T05:38:41.840Z,18.08
2018-05-24T05:39:07.329Z,18
2018-05-24T05:39:32.830Z,18.07
2018-05-24T05:39:58.357Z,18.07
2018-05-24T05:40:23.855Z,18.08
2018-05-24T05:40:49.366Z,18.08
2018-05-24T05:41:14.810Z,18.07
2018-05-24T05:41:40.375Z,18.11
2018-05-24T05:42:05.802Z,18.07
2018-05-24T05:42:31.303Z,18.07
2018-05-24T05:42:56.843Z,18.15
2018-05-24T05:43:22.306Z,18.13
2018-05-24T05:43:47.896Z,18.11
2018-05-24T05:44:13.509Z,18.18
2018-05-24T05:44:39.066Z,18.29
2018-05-24T05:45:04.527Z,18.26
2018-05-24T05:45:30.056Z,18.19
2018-05-24T05:45:55.559Z,18.23
2018-05-24T05:46:21.135Z,18.34
2018-05-24T05:46:46.834Z,18.33
2018-05-24T05:47:12.495Z,18.35
2018-05-24T05:47:37.904Z,18.45
2018-05-24T05:48:03.412Z,18.38
2018-05-24T05:48:28.915Z,18.45
2018-05-24T05:48:54.398Z,18.37
2018-05-24T05:49:19.914Z,18.44
2018-05-24T05:49:45.406Z,18.45
2018-05-24T05:50:10.893Z,18.45
2018-05-24T05:50:36.407Z,18.47
2018-05-24T05:51:01.910Z,18.44
2018-05-24T05:51:27.411Z,18.55
2018-05-24T05:51:52.894Z,18.56
2018-05-24T05:52:18.382Z,18.45
2018-05-24T05:52:43.875Z,18.58
2018-05-24T05:53:09.405Z,18.62
2018-05-24T05:53:34.911Z,18.65
2018-05-24T05:54:00.429Z,18.66
2018-05-24T05:54:25.903Z,18.65
2018-05-24T05:54:51.391Z,18.77
2018-05-24T05:55:16.921Z,18.74
2018-05-24T05:55:42.449Z,18.74
2018-05-24T05:56:07.941Z,18.73
2018-05-24T05:56:33.483Z,18.83
2018-05-24T05:56:58.968Z,18.83
2018-05-24T05:57:24.461Z,18.78
2018-05-24T05:57:49.949Z,18.92
2018-05-24T05:58:15.447Z,18.81
2018-05-24T05:58:40.972Z,18.84
2018-05-24T05:59:06.500Z,18.83
2018-05-24T05:59:31.989Z,18.89
2018-05-24T05:59:57.498Z,18.98
2018-05-24T06:00:23.050Z,18.95
2018-05-24T06:00:48.548Z,18.92
2018-05-24T06:01:14.012Z,19.02
2018-05-24T06:01:39.578Z,19.04
2018-05-24T06:02:05.136Z,19.09
2018-05-24T06:02:30.861Z,19.11
2018-05-24T06:02:56.504Z,19.18
2018-05-24T06:03:22.109Z,19.18
2018-05-24T06:03:47.624Z,19.22
2018-05-24T06:04:13.123Z,19.3
2018-05-24T06:04:38.644Z,19.34
2018-05-24T06:05:04.153Z,19.3
2018-05-24T06:05:29.646Z,19.37
2018-05-24T06:05:55.119Z,19.37
2018-05-24T06:06:20.632Z,19.37
2018-05-24T06:06:46.142Z,19.48
2018-05-24T06:07:11.629Z,19.36
2018-05-24T06:07:37.110Z,19.4
2018-05-24T06:08:02.627Z,19.51
2018-05-24T06:08:28.121Z,19.45
2018-05-24T06:08:53.603Z,19.47
2018-05-24T06:09:19.085Z,19.37
2018-05-24T06:09:44.612Z,19.45
2018-05-24T06:10:10.119Z,19.39
2018-05-24T06:10:35.605Z,19.33
2018-05-24T06:11:01.123Z,19.44
2018-05-24T06:11:26.629Z,19.3
2018-05-24T06:11:52.125Z,19.37
2018-05-24T06:12:17.611Z,19.39
2018-05-24T06:12:43.114Z,19.37
2018-05-24T06:13:08.653Z,19.37
2018-05-24T06:13:34.159Z,19.4
2018-05-24T06:13:59.672Z,19.33
2018-05-24T06:14:25.202Z,19.3
2018-05-24T06:14:50.680Z,19.37
2018-05-24T06:15:16.151Z,19.37
2018-05-24T06:15:41.646Z,19.36
2018-05-24T06:16:29.455Z,19.36
2018-05-24T06:16:54.962Z,19.41
2018-05-24T06:17:20.474Z,19.36
2018-05-24T06:17:45.993Z,19.41
2018-05-24T06:18:11.484Z,19.36
2018-05-24T06:18:36.983Z,19.39
2018-05-24T06:19:02.477Z,19.4
2018-05-24T06:19:50.778Z,19.4
2018-05-24T06:20:16.273Z,19.4
2018-05-24T06:20:41.774Z,19.4
2018-05-24T06:21:07.278Z,19.47
2018-05-24T06:21:32.783Z,19.49
2018-05-24T06:21:58.248Z,19.39
2018-05-24T06:22:51.747Z,19.47
2018-05-24T06:23:17.231Z,19.45
2018-05-24T06:23:42.729Z,19.37
2018-05-24T06:24:08.236Z,19.41
2018-05-24T06:24:34.024Z,19.44
2018-05-24T06:24:59.557Z,19.39
2018-05-24T06:25:25.048Z,19.33
2018-05-24T06:25:50.541Z,19.34
2018-05-24T06:26:16.048Z,19.41
2018-05-24T06:26:41.538Z,19.37
2018-05-24T06:27:07.070Z,19.3
2018-05-24T06:27:32.573Z,19.44
2018-05-24T06:27:58.053Z,19.34
2018-05-24T06:28:23.615Z,19.31
2018-05-24T06:28:49.119Z,19.33
2018-05-24T06:29:14.638Z,19.19
2018-05-24T06:29:40.135Z,19.12
2018-05-24T06:30:05.661Z,19.02
2018-05-24T06:30:31.195Z,19.02
2018-05-24T06:30:56.720Z,19.07
2018-05-24T06:31:22.201Z,19.07
2018-05-24T06:31:47.703Z,19.04
2018-05-24T06:32:13.169Z,19.04
2018-05-24T06:32:38.696Z,19.04
2018-05-24T06:33:04.201Z,19.04
2018-05-24T06:33:29.707Z,19.07
2018-05-24T06:33:55.191Z,19.02
2018-05-24T06:34:20.759Z,19
2018-05-24T06:34:46.237Z,18.99
2018-05-24T06:35:11.779Z,19
2018-05-24T06:35:37.273Z,19.11
2018-05-24T06:36:02.737Z,19.14
2018-05-24T06:36:28.226Z,19.14
2018-05-24T06:36:53.723Z,19.12
2018-05-24T06:37:19.286Z,19.15
2018-05-24T06:37:44.700Z,19.19
2018-05-24T06:38:10.167Z,19.16
2018-05-24T06:38:35.670Z,19.21
2018-05-24T06:39:01.173Z,19.19
2018-05-24T06:39:26.680Z,19.18
2018-05-24T06:39:52.183Z,19.22
2018-05-24T06:40:17.702Z,19.22
2018-05-24T06:40:43.205Z,19.3
2018-05-24T06:41:08.689Z,19.34
2018-05-24T06:41:34.204Z,19.33
2018-05-24T06:41:59.679Z,19.37
2018-05-24T06:42:25.160Z,19.3
2018-05-24T06:42:50.645Z,19.34
2018-05-24T06:43:16.173Z,19.36
2018-05-24T06:43:41.672Z,19.4
2018-05-24T06:44:07.214Z,19.37
2018-05-24T06:44:32.891Z,19.48
2018-05-24T06:44:58.458Z,19.39
2018-05-24T06:45:24.174Z,19.39
2018-05-24T06:45:49.752Z,19.41
2018-05-24T06:46:15.204Z,19.52
2018-05-24T06:46:40.694Z,19.51
2018-05-24T06:47:06.185Z,19.51
2018-05-24T06:47:31.716Z,19.48
2018-05-24T06:47:57.240Z,19.55
2018-05-24T06:48:22.734Z,19.51
2018-05-24T06:48:48.321Z,19.64
2018-05-24T06:49:13.836Z,19.69
2018-05-24T06:49:39.280Z,19.69
2018-05-24T06:50:04.773Z,19.64
2018-05-24T06:50:30.276Z,19.59
2018-05-24T06:50:55.773Z,19.74
2018-05-24T06:51:21.239Z,19.79
2018-05-24T06:51:46.783Z,19.71
2018-05-24T06:52:12.243Z,19.79
2018-05-24T06:52:37.737Z,19.84
2018-05-24T06:53:03.206Z,19.85
2018-05-24T06:53:28.731Z,19.81
2018-05-24T06:53:54.239Z,20.02
2018-05-24T06:54:19.727Z,19.96
2018-05-24T06:54:45.220Z,19.96
2018-05-24T06:55:10.693Z,20
2018-05-24T06:55:36.193Z,20.1
2018-05-24T06:56:01.703Z,20.18
2018-05-24T06:56:27.208Z,20.21
2018-05-24T06:56:52.751Z,20.31
2018-05-24T06:57:18.267Z,20.26
2018-05-24T06:57:43.843Z,20.32
2018-05-24T06:58:09.623Z,20.25
2018-05-24T06:58:35.265Z,20.43
2018-05-24T06:59:00.984Z,20.44
2018-05-24T06:59:26.580Z,20.52
2018-05-24T06:59:52.272Z,20.6
2018-05-24T07:00:17.965Z,20.7
2018-05-24T07:01:11.602Z,20.82
2018-05-24T07:01:37.162Z,20.84
2018-05-24T07:02:02.565Z,20.92
2018-05-24T07:02:28.081Z,20.99
2018-05-24T07:02:53.540Z,21.09
2018-05-24T07:03:19.072Z,21.06
2018-05-24T07:03:44.571Z,21.12
2018-05-24T07:04:10.069Z,21.24
2018-05-24T07:04:35.597Z,21.29
2018-05-24T07:05:01.245Z,21.25
2018-05-24T07:05:26.941Z,21.24
2018-05-24T07:05:52.639Z,21.22
2018-05-24T07:06:18.008Z,21.25
2018-05-24T07:06:43.546Z,21.2
2018-05-24T07:07:09.075Z,21.2
2018-05-24T07:07:34.563Z,21.09
2018-05-24T07:08:00.044Z,21.12
2018-05-24T07:08:25.518Z,21.22
2018-05-24T07:08:51.005Z,21.05
2018-05-24T07:09:16.568Z,20.99
2018-05-24T07:09:42.049Z,20.95
2018-05-24T07:10:07.535Z,20.95
2018-05-24T07:10:33.022Z,20.88
2018-05-24T07:10:58.566Z,20.88
2018-05-24T07:11:24.013Z,21.03
2018-05-24T07:11:49.478Z,20.95
2018-05-24T07:12:14.969Z,20.96
2018-05-24T07:12:40.529Z,21.11
2018-05-24T07:13:05.989Z,21.02
2018-05-24T07:13:31.490Z,21.12
2018-05-24T07:13:56.963Z,21.24
2018-05-24T07:14:22.476Z,21.27
2018-05-24T07:14:48.009Z,21.24
2018-05-24T07:15:13.508Z,21.35
2018-05-24T07:15:38.984Z,21.3
2018-05-24T07:16:04.467Z,21.32
2018-05-24T07:16:29.944Z,21.39
2018-05-24T07:16:55.433Z,21.25
2018-05-24T07:17:20.961Z,21.32
2018-05-24T07:17:46.491Z,21.36
2018-05-24T07:18:11.976Z,21.27
2018-05-24T07:18:37.539Z,21.36
2018-05-24T07:19:02.937Z,21.27
2018-05-24T07:19:28.423Z,21.33
2018-05-24T07:19:53.913Z,21.39
2018-05-24T07:20:19.442Z,21.33
2018-05-24T07:20:44.936Z,21.36
2018-05-24T07:21:10.426Z,21.42
2018-05-24T07:21:35.948Z,21.35
2018-05-24T07:22:01.441Z,21.5
2018-05-24T07:22:26.975Z,21.46
2018-05-24T07:22:52.475Z,21.46
2018-05-24T07:23:18.082Z,21.45
2018-05-24T07:23:43.605Z,21.42
2018-05-24T07:24:09.126Z,21.48
2018-05-24T07:24:34.854Z,21.51
2018-05-24T07:25:00.373Z,21.57
2018-05-24T07:25:25.920Z,21.61
2018-05-24T07:25:51.393Z,21.66
2018-05-24T07:26:16.963Z,21.69
2018-05-24T07:26:42.449Z,21.69
2018-05-24T07:27:07.995Z,21.72
2018-05-24T07:27:33.475Z,21.79
2018-05-24T07:27:59.185Z,21.77
2018-05-24T07:28:24.734Z,21.85
2018-05-24T07:28:50.296Z,21.93
2018-05-24T07:29:15.826Z,22
2018-05-24T07:29:41.271Z,22.08
2018-05-24T07:30:06.937Z,22.07
2018-05-24T07:30:32.954Z,21.99
2018-05-24T07:30:58.941Z,22.04
2018-05-24T07:31:24.515Z,22.02
2018-05-24T07:31:50.015Z,22.04
2018-05-24T07:32:15.842Z,21.99
2018-05-24T07:32:41.274Z,21.93
2018-05-24T07:33:06.903Z,21.83
2018-05-24T07:33:32.658Z,21.79
2018-05-24T07:33:58.295Z,21.93
2018-05-24T07:34:24.022Z,21.85
2018-05-24T07:34:50.043Z,21.82
2018-05-24T07:35:15.531Z,21.79
2018-05-24T07:35:41.176Z,21.77
2018-05-24T07:36:06.807Z,21.75
2018-05-24T07:36:32.599Z,21.7
2018-05-24T07:36:58.301Z,21.7
2018-05-24T07:37:23.928Z,21.67
2018-05-24T07:37:49.533Z,21.69
2018-05-24T07:38:15.371Z,21.64
2018-05-24T07:38:41.027Z,21.54
2018-05-24T07:39:06.990Z,21.58
2018-05-24T07:39:32.622Z,21.51
2018-05-24T07:39:58.172Z,21.55
2018-05-24T07:40:23.949Z,21.45
2018-05-24T07:40:50.894Z,21.46
2018-05-24T07:41:16.528Z,21.43
2018-05-24T07:41:42.181Z,21.36
2018-05-24T07:42:07.878Z,21.43
2018-05-24T07:42:33.655Z,21.29
2018-05-24T07:42:59.411Z,21.25
2018-05-24T07:43:25.041Z,21.27
2018-05-24T07:43:50.767Z,21.33
2018-05-24T07:44:16.484Z,21.32
2018-05-24T07:44:42.081Z,21.33
2018-05-24T07:45:07.656Z,21.32
2018-05-24T07:45:33.245Z,21.25
2018-05-24T07:45:58.916Z,21.27
2018-05-24T07:46:24.698Z,21.21
2018-05-24T07:46:50.438Z,21.24
2018-05-24T07:47:16.108Z,21.25
2018-05-24T07:47:41.648Z,21.05
2018-05-24T07:48:07.275Z,21.07
2018-05-24T07:48:33.077Z,21.09
2018-05-24T07:48:58.687Z,21
2018-05-24T07:49:24.397Z,20.93
2018-05-24T07:49:49.974Z,20.95
2018-05-24T07:50:15.740Z,20.9
2018-05-24T07:50:41.515Z,20.9
2018-05-24T07:51:07.083Z,20.85
2018-05-24T07:51:32.848Z,20.82
2018-05-24T07:51:58.565Z,20.85
2018-05-24T07:52:24.208Z,20.9
2018-05-24T07:52:49.811Z,20.82
2018-05-24T07:53:15.476Z,20.9
2018-05-24T07:53:41.291Z,21.03
2018-05-24T07:54:06.935Z,21
2018-05-24T07:54:32.519Z,20.96
2018-05-24T07:54:58.165Z,20.95
2018-05-24T07:55:23.766Z,21.09
2018-05-24T07:55:49.347Z,21
2018-05-24T07:56:15.047Z,21.09
2018-05-24T07:56:40.704Z,21.06
2018-05-24T07:57:06.373Z,21.17
2018-05-24T07:57:32.115Z,21.14
2018-05-24T07:57:57.727Z,21.22
2018-05-24T07:58:23.373Z,21.22
2018-05-24T07:58:49.028Z,21.24
2018-05-24T07:59:14.850Z,21.27
2018-05-24T07:59:40.584Z,21.27
2018-05-24T08:00:06.206Z,21.25
2018-05-24T08:00:31.724Z,21.27
2018-05-24T08:00:57.409Z,21.32
2018-05-24T08:01:23.054Z,21.42
2018-05-24T08:01:48.725Z,21.32
2018-05-24T08:02:14.335Z,21.45
2018-05-24T08:02:40.026Z,21.46
2018-05-24T08:03:05.619Z,21.51
2018-05-24T08:03:31.280Z,21.52
2018-05-24T08:03:56.843Z,21.46
2018-05-24T08:04:22.442Z,21.58
2018-05-24T08:04:48.140Z,21.61
2018-05-24T08:05:13.804Z,21.55
2018-05-24T08:05:39.429Z,21.52
2018-05-24T08:06:04.937Z,21.64
2018-05-24T08:06:30.570Z,21.73
2018-05-24T08:06:56.199Z,21.7
2018-05-24T08:07:22.063Z,21.72
2018-05-24T08:07:47.590Z,21.8
2018-05-24T08:08:13.132Z,21.72
2018-05-24T08:08:38.893Z,21.8
2018-05-24T08:09:04.402Z,21.77
2018-05-24T08:09:30.034Z,21.8
2018-05-24T08:09:55.627Z,21.77
2018-05-24T08:10:21.261Z,21.8
2018-05-24T08:10:46.889Z,21.83
2018-05-24T08:11:12.550Z,21.96
2018-05-24T08:11:38.336Z,21.96
2018-05-24T08:12:03.910Z,22.08
2018-05-24T08:12:29.493Z,22.1
2018-05-24T08:12:55.072Z,22.08
2018-05-24T08:13:20.849Z,22.22
2018-05-24T08:13:46.521Z,22.26
2018-05-24T08:14:12.109Z,22.3
2018-05-24T08:14:37.887Z,22.41
2018-05-24T08:15:03.364Z,22.43
2018-05-24T08:15:28.943Z,22.48
2018-05-24T08:15:54.615Z,22.54
2018-05-24T08:16:20.212Z,22.63
2018-05-24T08:16:45.997Z,22.65
2018-05-24T08:17:11.554Z,22.59
2018-05-24T08:17:37.585Z,22.65
2018-05-24T08:18:03.146Z,22.73
2018-05-24T08:18:28.948Z,22.62
2018-05-24T08:18:54.610Z,22.7
2018-05-24T08:19:20.265Z,22.57
2018-05-24T08:19:45.887Z,22.66
2018-05-24T08:20:11.531Z,22.72
2018-05-24T08:20:37.325Z,22.68
2018-05-24T08:21:02.959Z,22.72
2018-05-24T08:21:28.565Z,22.7
2018-05-24T08:21:54.134Z,22.68
2018-05-24T08:22:19.888Z,22.69
2018-05-24T08:22:45.524Z,22.76
2018-05-24T08:23:11.630Z,22.78
2018-05-24T08:23:37.520Z,22.9
2018-05-24T08:24:03.227Z,22.87
2018-05-24T08:24:29.347Z,22.9
2018-05-24T08:24:54.951Z,22.88
2018-05-24T08:25:20.857Z,22.87
2018-05-24T08:25:46.516Z,22.87
2018-05-24T08:26:12.270Z,22.88
2018-05-24T08:26:38.097Z,22.87
2018-05-24T08:27:03.909Z,22.9
2018-05-24T08:27:29.601Z,22.91
2018-05-24T08:27:55.253Z,22.93
2018-05-24T08:28:20.843Z,22.9
2018-05-24T08:28:46.479Z,22.96
2018-05-24T08:29:12.111Z,23.09
2018-05-24T08:29:37.890Z,23.09
2018-05-24T08:30:03.546Z,23.12
2018-05-24T08:30:29.212Z,23.2
2018-05-24T08:30:54.829Z,23.06
2018-05-24T08:31:20.592Z,23.2
2018-05-24T08:31:46.357Z,23.12
2018-05-24T08:32:12.032Z,23.17
2018-05-24T08:32:37.800Z,23.17
2018-05-24T08:33:03.575Z,23.15
2018-05-24T08:33:29.402Z,23.17
2018-05-24T08:33:55.068Z,23.09
2018-05-24T08:34:20.906Z,23.12
2018-05-24T08:34:46.518Z,23.12
2018-05-24T08:35:12.381Z,23.03
2018-05-24T08:35:37.805Z,23.02
2018-05-24T08:36:03.466Z,23.08
2018-05-24T08:36:29.107Z,23.15
2018-05-24T08:36:54.594Z,23.17
2018-05-24T08:37:20.183Z,23.28
2018-05-24T08:37:45.769Z,23.2
2018-05-24T08:38:11.414Z,23.21
2018-05-24T08:38:37.083Z,23.25
2018-05-24T08:39:02.623Z,23.27
2018-05-24T08:39:28.320Z,23.36
2018-05-24T08:39:53.949Z,23.46
2018-05-24T08:40:19.666Z,23.43
2018-05-24T08:40:45.390Z,23.36
2018-05-24T08:41:11.141Z,23.36
2018-05-24T08:41:36.781Z,23.41
2018-05-24T08:42:02.247Z,23.41
2018-05-24T08:42:27.980Z,23.34
2018-05-24T08:42:53.602Z,23.27
2018-05-24T08:43:19.538Z,23.24
2018-05-24T08:43:45.199Z,23.27
2018-05-24T08:44:10.852Z,23.08
2018-05-24T08:44:36.746Z,23.12
2018-05-24T08:45:02.281Z,23.03
2018-05-24T08:45:27.904Z,23
2018-05-24T08:45:53.950Z,23.02
2018-05-24T08:46:19.621Z,23.06
2018-05-24T08:46:45.449Z,23.09
2018-05-24T08:47:11.173Z,23.1
2018-05-24T08:47:36.726Z,23.25
2018-05-24T08:48:02.540Z,23.28
2018-05-24T08:48:28.193Z,23.12
2018-05-24T08:48:53.787Z,23.21
2018-05-24T08:49:19.403Z,23.21
2018-05-24T08:49:45.081Z,23.41
2018-05-24T08:50:10.834Z,23.39
2018-05-24T08:50:36.496Z,23.4
2018-05-24T08:51:02.227Z,23.59
2018-05-24T08:51:27.911Z,23.66
2018-05-24T08:51:53.567Z,23.63
2018-05-24T08:52:19.347Z,23.74
2018-05-24T08:52:45.727Z,23.84
2018-05-24T08:53:12.308Z,23.88
2018-05-24T08:53:38.190Z,23.84
2018-05-24T08:54:05.581Z,23.84
2018-05-24T08:54:32.020Z,23.86
2018-05-24T08:54:58.043Z,23.99
2018-05-24T08:55:24.343Z,23.84
2018-05-24T08:55:49.810Z,23.92
2018-05-24T08:56:15.393Z,24.01
2018-05-24T08:56:41.044Z,23.98
2018-05-24T08:57:06.687Z,23.98
2018-05-24T08:57:32.294Z,24.02
2018-05-24T08:57:57.938Z,24.03
2018-05-24T08:58:23.729Z,24.03
2018-05-24T08:58:49.389Z,23.93
2018-05-24T08:59:15.041Z,23.98
2018-05-24T08:59:40.645Z,23.84
2018-05-24T09:00:06.297Z,23.83
2018-05-24T09:00:31.952Z,23.91
2018-05-24T09:00:57.585Z,23.84
2018-05-24T09:01:23.321Z,23.8
2018-05-24T09:01:48.908Z,23.76
2018-05-24T09:02:15.686Z,23.74
2018-05-24T09:02:41.276Z,23.63
2018-05-24T09:03:07.001Z,23.69
2018-05-24T09:03:32.649Z,23.68
2018-05-24T09:03:58.224Z,23.65
2018-05-24T09:04:23.834Z,23.55
2018-05-24T09:04:49.506Z,23.63
2018-05-24T09:05:15.174Z,23.62
2018-05-24T09:05:40.882Z,23.62
2018-05-24T09:06:06.487Z,23.63
2018-05-24T09:06:32.131Z,23.68
2018-05-24T09:06:57.776Z,23.68
2018-05-24T09:07:23.461Z,23.69
2018-05-24T09:07:49.229Z,23.65
2018-05-24T09:08:14.790Z,23.62
2018-05-24T09:08:40.527Z,23.65
2018-05-24T09:09:06.639Z,23.68
2018-05-24T09:09:32.397Z,23.68
2018-05-24T09:09:58.195Z,23.71
2018-05-24T09:10:23.857Z,23.68
2018-05-24T09:10:49.818Z,23.73
2018-05-24T09:11:15.442Z,23.77
2018-05-24T09:11:41.181Z,23.8
2018-05-24T09:12:06.799Z,23.83
2018-05-24T09:12:32.923Z,23.81
2018-05-24T09:12:58.686Z,23.86
2018-05-24T09:13:24.283Z,23.84
2018-05-24T09:13:49.953Z,23.84
2018-05-24T09:14:16.104Z,23.92
2018-05-24T09:14:41.729Z,23.96
2018-05-24T09:15:07.760Z,23.93
2018-05-24T09:15:33.428Z,23.95
2018-05-24T09:15:59.441Z,23.88
2018-05-24T09:16:25.362Z,23.81
2018-05-24T09:16:50.989Z,23.77
2018-05-24T09:17:16.735Z,23.83
2018-05-24T09:17:42.554Z,23.77
2018-05-24T09:18:08.379Z,23.74
2018-05-24T09:18:34.065Z,23.84
2018-05-24T09:18:59.820Z,23.81
2018-05-24T09:19:25.463Z,23.84
2018-05-24T09:19:51.331Z,23.87
2018-05-24T09:20:17.655Z,23.99
2018-05-24T09:20:43.396Z,24.03
2018-05-24T09:21:09.056Z,24.11
2018-05-24T09:21:34.978Z,24.26
2018-05-24T09:22:00.675Z,24.39
2018-05-24T09:22:26.394Z,24.48
2018-05-24T09:22:52.143Z,24.51
2018-05-24T09:23:17.844Z,24.53
2018-05-24T09:23:43.677Z,24.68
2018-05-24T09:24:10.018Z,24.63
2018-05-24T09:24:35.642Z,24.63
2018-05-24T09:25:02.007Z,24.68
2018-05-24T09:25:28.896Z,24.7
2018-05-24T09:25:54.749Z,24.68
2018-05-24T09:26:20.664Z,24.73
2018-05-24T09:26:46.439Z,24.73
2018-05-24T09:27:12.149Z,24.76
2018-05-24T09:27:37.788Z,24.68
2018-05-24T09:28:03.499Z,24.69
2018-05-24T09:28:29.315Z,24.76
2018-05-24T09:28:55.274Z,24.68
2018-05-24T09:29:20.936Z,24.66
2018-05-24T09:29:46.805Z,24.68
2018-05-24T09:30:12.542Z,24.57
2018-05-24T09:30:38.163Z,24.63
2018-05-24T09:31:03.880Z,24.53
2018-05-24T09:31:29.501Z,24.53
2018-05-24T09:31:55.198Z,24.4
2018-05-24T09:32:20.948Z,24.38
2018-05-24T09:32:46.773Z,24.3
2018-05-24T09:33:12.513Z,24.28
2018-05-24T09:33:38.271Z,24.36
2018-05-24T09:34:04.367Z,24.39
2018-05-24T09:34:29.971Z,24.39
2018-05-24T09:34:55.696Z,24.45
2018-05-24T09:35:21.490Z,24.55
2018-05-24T09:35:47.208Z,24.5
2018-05-24T09:36:12.921Z,24.39
2018-05-24T09:36:38.588Z,24.47
2018-05-24T09:37:04.574Z,24.39
2018-05-24T09:37:30.409Z,24.47
2018-05-24T09:37:55.934Z,24.45
2018-05-24T09:38:21.662Z,24.32
2018-05-24T09:38:47.328Z,24.3
2018-05-24T09:39:13.118Z,24.33
2018-05-24T09:39:38.735Z,24.28
2018-05-24T09:40:04.541Z,24.17
2018-05-24T09:40:30.175Z,24.13
2018-05-24T09:40:55.795Z,23.98
2018-05-24T09:41:21.541Z,23.88
2018-05-24T09:41:47.122Z,23.84
2018-05-24T09:42:12.738Z,23.83
2018-05-24T09:42:38.382Z,23.78
2018-05-24T09:43:04.342Z,23.78
2018-05-24T09:43:29.975Z,23.73